sensor_id;sensor_type;location;lat;lon;timestamp;temperature;humidity
37678;DHT22;23517;50.390;8.616;2023-04-25T00:01:27;9.00;61.00
37678;DHT22;23517;50.390;8.616;2023-04-25T00:03:54;9.00;60.50
37678;DHT22;23517;50.390;8.616;2023-04-25T00:06:22;9.00;60.80
37678;DHT22;23517;50.390;8.616;2023-04-25T00:08:52;9.00;60.00
37678;DHT22;23517;50.390;8.616;2023-04-25T00:11:19;9.00;59.90
37678;DHT22;23517;50.390;8.616;2023-04-25T00:13:46;9.10;59.80
37678;DHT22;23517;50.390;8.616;2023-04-25T00:16:15;9.10;58.80
37678;DHT22;23517;50.390;8.616;2023-04-25T00:18:42;9.10;58.90
37678;DHT22;23517;50.390;8.616;2023-04-25T00:21:09;9.10;58.90
37678;DHT22;23517;50.390;8.616;2023-04-25T00:23:36;9.10;58.40
37678;DHT22;23517;50.390;8.616;2023-04-25T00:26:03;9.10;57.80
37678;DHT22;23517;50.390;8.616;2023-04-25T00:28:29;9.10;58.10
37678;DHT22;23517;50.390;8.616;2023-04-25T00:30:56;9.00;58.60
37678;DHT22;23517;50.390;8.616;2023-04-25T00:33:23;9.00;58.80
37678;DHT22;23517;50.390;8.616;2023-04-25T00:35:49;9.00;58.90
37678;DHT22;23517;50.390;8.616;2023-04-25T00:38:16;9.00;58.60
37678;DHT22;23517;50.390;8.616;2023-04-25T00:40:42;9.00;58.70
37678;DHT22;23517;50.390;8.616;2023-04-25T00:43:10;8.90;59.30
37678;DHT22;23517;50.390;8.616;2023-04-25T00:45:38;9.00;59.70
37678;DHT22;23517;50.390;8.616;2023-04-25T00:48:06;8.90;59.00
37678;DHT22;23517;50.390;8.616;2023-04-25T00:50:33;8.90;58.20
37678;DHT22;23517;50.390;8.616;2023-04-25T00:53:00;8.90;58.20
37678;DHT22;23517;50.390;8.616;2023-04-25T00:55:28;8.80;58.40
37678;DHT22;23517;50.390;8.616;2023-04-25T00:57:55;8.80;58.60
37678;DHT22;23517;50.390;8.616;2023-04-25T01:00:21;8.80;58.50
37678;DHT22;23517;50.390;8.616;2023-04-25T01:02:48;8.80;58.50
37678;DHT22;23517;50.390;8.616;2023-04-25T01:05:17;8.70;59.30
37678;DHT22;23517;50.390;8.616;2023-04-25T01:07:48;8.70;59.20
37678;DHT22;23517;50.390;8.616;2023-04-25T01:10:15;8.60;58.70
37678;DHT22;23517;50.390;8.616;2023-04-25T01:12:42;8.60;59.30
37678;DHT22;23517;50.390;8.616;2023-04-25T01:15:09;8.50;59.60
37678;DHT22;23517;50.390;8.616;2023-04-25T01:17:36;8.60;59.20
37678;DHT22;23517;50.390;8.616;2023-04-25T01:20:05;8.60;59.30
37678;DHT22;23517;50.390;8.616;2023-04-25T01:22:33;8.60;60.00
37678;DHT22;23517;50.390;8.616;2023-04-25T01:25:00;8.60;58.80
37678;DHT22;23517;50.390;8.616;2023-04-25T01:27:27;8.60;58.80
37678;DHT22;23517;50.390;8.616;2023-04-25T01:29:54;8.60;58.60
37678;DHT22;23517;50.390;8.616;2023-04-25T01:32:23;8.50;59.50
37678;DHT22;23517;50.390;8.616;2023-04-25T01:34:50;8.50;59.10
37678;DHT22;23517;50.390;8.616;2023-04-25T01:37:16;8.50;58.40
37678;DHT22;23517;50.390;8.616;2023-04-25T01:39:44;8.40;58.20
37678;DHT22;23517;50.390;8.616;2023-04-25T01:42:13;8.40;58.20
37678;DHT22;23517;50.390;8.616;2023-04-25T01:44:40;8.40;57.90
37678;DHT22;23517;50.390;8.616;2023-04-25T01:47:07;8.40;58.30
37678;DHT22;23517;50.390;8.616;2023-04-25T01:49:34;8.40;58.40
37678;DHT22;23517;50.390;8.616;2023-04-25T01:52:01;8.30;57.90
37678;DHT22;23517;50.390;8.616;2023-04-25T01:54:27;8.30;57.60
37678;DHT22;23517;50.390;8.616;2023-04-25T01:56:57;8.30;57.20
37678;DHT22;23517;50.390;8.616;2023-04-25T01:59:23;8.30;56.90
37678;DHT22;23517;50.390;8.616;2023-04-25T02:01:50;8.40;56.90
37678;DHT22;23517;50.390;8.616;2023-04-25T02:04:17;8.20;56.30
37678;DHT22;23517;50.390;8.616;2023-04-25T02:06:43;8.20;56.40
37678;DHT22;23517;50.390;8.616;2023-04-25T02:09:10;8.30;56.60
37678;DHT22;23517;50.390;8.616;2023-04-25T02:11:37;8.20;56.10
37678;DHT22;23517;50.390;8.616;2023-04-25T02:14:03;8.20;55.70
37678;DHT22;23517;50.390;8.616;2023-04-25T02:16:30;8.20;53.90
37678;DHT22;23517;50.390;8.616;2023-04-25T02:18:57;8.10;54.30
37678;DHT22;23517;50.390;8.616;2023-04-25T02:21:24;8.10;53.70
37678;DHT22;23517;50.390;8.616;2023-04-25T02:23:50;8.10;55.20
37678;DHT22;23517;50.390;8.616;2023-04-25T02:26:18;8.10;55.60
37678;DHT22;23517;50.390;8.616;2023-04-25T02:28:46;8.10;55.00
37678;DHT22;23517;50.390;8.616;2023-04-25T02:31:12;8.10;55.20
37678;DHT22;23517;50.390;8.616;2023-04-25T02:33:39;8.00;55.10
37678;DHT22;23517;50.390;8.616;2023-04-25T02:36:06;8.00;54.80
37678;DHT22;23517;50.390;8.616;2023-04-25T02:38:33;7.90;54.00
37678;DHT22;23517;50.390;8.616;2023-04-25T02:41:00;8.00;53.30
37678;DHT22;23517;50.390;8.616;2023-04-25T02:43:27;8.00;53.90
37678;DHT22;23517;50.390;8.616;2023-04-25T02:45:54;7.90;53.80
37678;DHT22;23517;50.390;8.616;2023-04-25T02:48:20;7.80;53.50
37678;DHT22;23517;50.390;8.616;2023-04-25T02:50:47;7.80;53.60
37678;DHT22;23517;50.390;8.616;2023-04-25T02:53:14;7.70;54.00
37678;DHT22;23517;50.390;8.616;2023-04-25T02:55:40;7.70;54.30
37678;DHT22;23517;50.390;8.616;2023-04-25T02:58:07;7.60;54.70
37678;DHT22;23517;50.390;8.616;2023-04-25T03:00:34;7.60;54.40
37678;DHT22;23517;50.390;8.616;2023-04-25T03:03:00;7.50;54.20
37678;DHT22;23517;50.390;8.616;2023-04-25T03:05:27;7.50;54.10
37678;DHT22;23517;50.390;8.616;2023-04-25T03:07:53;7.40;54.00
37678;DHT22;23517;50.390;8.616;2023-04-25T03:10:20;7.40;53.80
37678;DHT22;23517;50.390;8.616;2023-04-25T03:12:47;7.30;54.30
37678;DHT22;23517;50.390;8.616;2023-04-25T03:15:13;7.20;54.20
37678;DHT22;23517;50.390;8.616;2023-04-25T03:17:40;7.20;54.00
37678;DHT22;23517;50.390;8.616;2023-04-25T03:20:07;7.10;54.70
37678;DHT22;23517;50.390;8.616;2023-04-25T03:22:34;7.10;55.10
37678;DHT22;23517;50.390;8.616;2023-04-25T03:25:01;7.10;54.80
37678;DHT22;23517;50.390;8.616;2023-04-25T03:27:30;7.00;55.30
37678;DHT22;23517;50.390;8.616;2023-04-25T03:30:00;7.00;55.50
37678;DHT22;23517;50.390;8.616;2023-04-25T03:32:28;6.90;55.90
37678;DHT22;23517;50.390;8.616;2023-04-25T03:34:56;6.90;55.90
37678;DHT22;23517;50.390;8.616;2023-04-25T03:37:23;6.80;56.10
37678;DHT22;23517;50.390;8.616;2023-04-25T03:39:51;6.80;56.40
37678;DHT22;23517;50.390;8.616;2023-04-25T03:42:17;6.70;56.40
37678;DHT22;23517;50.390;8.616;2023-04-25T03:44:44;6.60;56.30
37678;DHT22;23517;50.390;8.616;2023-04-25T03:47:11;6.60;57.00
37678;DHT22;23517;50.390;8.616;2023-04-25T03:49:37;6.40;57.10
37678;DHT22;23517;50.390;8.616;2023-04-25T03:52:04;6.40;57.30
37678;DHT22;23517;50.390;8.616;2023-04-25T03:54:31;6.50;56.90
37678;DHT22;23517;50.390;8.616;2023-04-25T03:56:57;6.50;56.90
37678;DHT22;23517;50.390;8.616;2023-04-25T03:59:24;6.50;57.00
37678;DHT22;23517;50.390;8.616;2023-04-25T04:01:52;6.40;57.30
37678;DHT22;23517;50.390;8.616;2023-04-25T04:04:19;6.40;56.80
37678;DHT22;23517;50.390;8.616;2023-04-25T04:06:46;6.40;56.70
37678;DHT22;23517;50.390;8.616;2023-04-25T04:09:12;6.40;56.20
37678;DHT22;23517;50.390;8.616;2023-04-25T04:11:39;6.40;56.00
37678;DHT22;23517;50.390;8.616;2023-04-25T04:14:06;6.40;56.20
37678;DHT22;23517;50.390;8.616;2023-04-25T04:16:33;6.30;55.80
37678;DHT22;23517;50.390;8.616;2023-04-25T04:19:00;6.10;56.40
37678;DHT22;23517;50.390;8.616;2023-04-25T04:21:27;6.00;57.50
37678;DHT22;23517;50.390;8.616;2023-04-25T04:23:54;6.10;56.60
37678;DHT22;23517;50.390;8.616;2023-04-25T04:26:21;6.20;56.00
37678;DHT22;23517;50.390;8.616;2023-04-25T04:28:52;6.10;56.50
37678;DHT22;23517;50.390;8.616;2023-04-25T04:31:21;5.90;58.50
37678;DHT22;23517;50.390;8.616;2023-04-25T04:33:48;5.80;59.00
37678;DHT22;23517;50.390;8.616;2023-04-25T04:36:15;5.80;58.50
37678;DHT22;23517;50.390;8.616;2023-04-25T04:38:44;5.50;58.60
37678;DHT22;23517;50.390;8.616;2023-04-25T04:41:11;5.60;58.60
37678;DHT22;23517;50.390;8.616;2023-04-25T04:43:37;5.60;58.70
37678;DHT22;23517;50.390;8.616;2023-04-25T04:46:05;5.70;58.40
37678;DHT22;23517;50.390;8.616;2023-04-25T04:48:32;5.80;57.90
37678;DHT22;23517;50.390;8.616;2023-04-25T04:51:00;5.90;57.10
37678;DHT22;23517;50.390;8.616;2023-04-25T04:53:27;6.00;56.20
37678;DHT22;23517;50.390;8.616;2023-04-25T04:55:54;6.00;57.00
37678;DHT22;23517;50.390;8.616;2023-04-25T04:58:21;6.00;57.40
37678;DHT22;23517;50.390;8.616;2023-04-25T05:00:48;5.90;57.60
37678;DHT22;23517;50.390;8.616;2023-04-25T05:03:15;6.00;56.80
37678;DHT22;23517;50.390;8.616;2023-04-25T05:05:42;6.10;56.40
37678;DHT22;23517;50.390;8.616;2023-04-25T05:08:09;6.20;55.80
37678;DHT22;23517;50.390;8.616;2023-04-25T05:10:35;6.40;54.40
37678;DHT22;23517;50.390;8.616;2023-04-25T05:13:02;6.60;53.90
37678;DHT22;23517;50.390;8.616;2023-04-25T05:15:29;6.60;52.60
37678;DHT22;23517;50.390;8.616;2023-04-25T05:17:56;6.80;52.20
37678;DHT22;23517;50.390;8.616;2023-04-25T05:20:22;6.90;51.60
37678;DHT22;23517;50.390;8.616;2023-04-25T05:22:49;6.90;51.60
37678;DHT22;23517;50.390;8.616;2023-04-25T05:25:16;7.10;51.00
37678;DHT22;23517;50.390;8.616;2023-04-25T05:27:42;7.20;49.30
37678;DHT22;23517;50.390;8.616;2023-04-25T05:30:09;7.20;48.60
37678;DHT22;23517;50.390;8.616;2023-04-25T05:32:36;7.30;48.20
37678;DHT22;23517;50.390;8.616;2023-04-25T05:35:03;7.40;47.80
37678;DHT22;23517;50.390;8.616;2023-04-25T05:37:30;7.40;47.50
37678;DHT22;23517;50.390;8.616;2023-04-25T05:39:57;7.50;48.10
37678;DHT22;23517;50.390;8.616;2023-04-25T05:42:24;7.70;47.20
37678;DHT22;23517;50.390;8.616;2023-04-25T05:44:51;7.80;45.90
37678;DHT22;23517;50.390;8.616;2023-04-25T05:47:18;7.90;46.00
37678;DHT22;23517;50.390;8.616;2023-04-25T05:49:44;8.10;44.80
37678;DHT22;23517;50.390;8.616;2023-04-25T05:52:11;8.30;45.00
37678;DHT22;23517;50.390;8.616;2023-04-25T05:54:37;8.60;44.20
37678;DHT22;23517;50.390;8.616;2023-04-25T05:57:04;8.90;42.30
37678;DHT22;23517;50.390;8.616;2023-04-25T05:59:30;9.00;41.70
37678;DHT22;23517;50.390;8.616;2023-04-25T06:01:57;9.30;41.30
37678;DHT22;23517;50.390;8.616;2023-04-25T06:04:25;10.20;39.00
37678;DHT22;23517;50.390;8.616;2023-04-25T06:06:52;10.50;36.50
37678;DHT22;23517;50.390;8.616;2023-04-25T06:09:18;11.00;35.60
37678;DHT22;23517;50.390;8.616;2023-04-25T06:11:45;11.20;33.80
37678;DHT22;23517;50.390;8.616;2023-04-25T06:14:12;11.80;32.40
37678;DHT22;23517;50.390;8.616;2023-04-25T06:16:39;11.90;32.10
37678;DHT22;23517;50.390;8.616;2023-04-25T06:19:05;11.90;31.80
37678;DHT22;23517;50.390;8.616;2023-04-25T06:21:32;12.20;30.70
37678;DHT22;23517;50.390;8.616;2023-04-25T06:23:59;12.30;30.50
37678;DHT22;23517;50.390;8.616;2023-04-25T06:26:25;12.40;30.90
37678;DHT22;23517;50.390;8.616;2023-04-25T06:28:52;12.90;28.20
37678;DHT22;23517;50.390;8.616;2023-04-25T06:31:18;13.40;27.70
37678;DHT22;23517;50.390;8.616;2023-04-25T06:33:45;13.80;26.80
37678;DHT22;23517;50.390;8.616;2023-04-25T06:36:12;15.40;25.00
37678;DHT22;23517;50.390;8.616;2023-04-25T06:38:38;15.80;22.00
37678;DHT22;23517;50.390;8.616;2023-04-25T06:41:05;16.10;21.60
37678;DHT22;23517;50.390;8.616;2023-04-25T06:43:32;17.20;18.80
37678;DHT22;23517;50.390;8.616;2023-04-25T06:46:00;17.80;18.60
37678;DHT22;23517;50.390;8.616;2023-04-25T06:48:27;18.60;16.20
37678;DHT22;23517;50.390;8.616;2023-04-25T06:50:54;18.20;16.50
37678;DHT22;23517;50.390;8.616;2023-04-25T06:53:21;18.60;16.50
37678;DHT22;23517;50.390;8.616;2023-04-25T06:55:47;18.60;16.90
37678;DHT22;23517;50.390;8.616;2023-04-25T06:58:14;19.20;15.70
37678;DHT22;23517;50.390;8.616;2023-04-25T07:00:40;18.70;16.20
37678;DHT22;23517;50.390;8.616;2023-04-25T07:03:07;18.30;16.50
37678;DHT22;23517;50.390;8.616;2023-04-25T07:05:35;17.50;17.70
37678;DHT22;23517;50.390;8.616;2023-04-25T07:08:02;17.70;17.60
37678;DHT22;23517;50.390;8.616;2023-04-25T07:10:29;18.40;16.90
37678;DHT22;23517;50.390;8.616;2023-04-25T07:12:56;17.80;16.10
37678;DHT22;23517;50.390;8.616;2023-04-25T07:15:23;17.50;17.50
37678;DHT22;23517;50.390;8.616;2023-04-25T07:17:49;16.20;18.90
37678;DHT22;23517;50.390;8.616;2023-04-25T07:20:16;15.50;20.50
37678;DHT22;23517;50.390;8.616;2023-04-25T07:22:43;14.50;21.60
37678;DHT22;23517;50.390;8.616;2023-04-25T07:25:10;13.50;22.80
37678;DHT22;23517;50.390;8.616;2023-04-25T07:27:36;13.20;24.40
37678;DHT22;23517;50.390;8.616;2023-04-25T07:30:04;12.50;26.40
37678;DHT22;23517;50.390;8.616;2023-04-25T07:32:31;12.40;26.30
37678;DHT22;23517;50.390;8.616;2023-04-25T07:34:58;12.40;26.30
37678;DHT22;23517;50.390;8.616;2023-04-25T07:37:24;11.70;27.70
37678;DHT22;23517;50.390;8.616;2023-04-25T07:39:52;11.40;29.30
37678;DHT22;23517;50.390;8.616;2023-04-25T07:42:19;11.10;30.20
37678;DHT22;23517;50.390;8.616;2023-04-25T07:44:45;11.10;30.60
37678;DHT22;23517;50.390;8.616;2023-04-25T07:47:12;11.30;30.50
37678;DHT22;23517;50.390;8.616;2023-04-25T07:49:39;11.30;30.40
37678;DHT22;23517;50.390;8.616;2023-04-25T07:52:06;11.30;30.30
37678;DHT22;23517;50.390;8.616;2023-04-25T07:54:33;11.60;30.40
37678;DHT22;23517;50.390;8.616;2023-04-25T07:57:00;12.50;28.30
37678;DHT22;23517;50.390;8.616;2023-04-25T07:59:26;13.00;27.10
37678;DHT22;23517;50.390;8.616;2023-04-25T08:01:55;13.50;25.50
37678;DHT22;23517;50.390;8.616;2023-04-25T08:04:27;13.70;25.00
37678;DHT22;23517;50.390;8.616;2023-04-25T08:07:12;13.60;25.20
37678;DHT22;23517;50.390;8.616;2023-04-25T08:09:39;13.20;25.20
37678;DHT22;23517;50.390;8.616;2023-04-25T08:12:05;12.90;25.20
37678;DHT22;23517;50.390;8.616;2023-04-25T08:14:32;12.90;25.80
37678;DHT22;23517;50.390;8.616;2023-04-25T08:17:03;12.90;25.80
37678;DHT22;23517;50.390;8.616;2023-04-25T08:19:30;12.70;26.40
37678;DHT22;23517;50.390;8.616;2023-04-25T08:21:57;12.40;27.40
37678;DHT22;23517;50.390;8.616;2023-04-25T08:24:23;12.40;27.00
37678;DHT22;23517;50.390;8.616;2023-04-25T08:26:51;12.30;27.70
37678;DHT22;23517;50.390;8.616;2023-04-25T08:29:18;11.90;28.80
37678;DHT22;23517;50.390;8.616;2023-04-25T08:31:44;12.10;27.30
37678;DHT22;23517;50.390;8.616;2023-04-25T08:34:11;11.80;28.20
37678;DHT22;23517;50.390;8.616;2023-04-25T08:36:38;11.70;28.90
37678;DHT22;23517;50.390;8.616;2023-04-25T08:39:06;12.10;27.60
37678;DHT22;23517;50.390;8.616;2023-04-25T08:41:33;12.30;27.70
37678;DHT22;23517;50.390;8.616;2023-04-25T08:44:01;13.00;25.90
37678;DHT22;23517;50.390;8.616;2023-04-25T08:46:30;13.10;24.20
37678;DHT22;23517;50.390;8.616;2023-04-25T08:49:00;12.80;25.50
37678;DHT22;23517;50.390;8.616;2023-04-25T08:51:31;12.50;25.20
37678;DHT22;23517;50.390;8.616;2023-04-25T08:54:12;12.60;25.10
37678;DHT22;23517;50.390;8.616;2023-04-25T08:56:47;12.70;25.20
37678;DHT22;23517;50.390;8.616;2023-04-25T08:59:14;13.00;24.40
37678;DHT22;23517;50.390;8.616;2023-04-25T09:01:41;12.90;23.60
37678;DHT22;23517;50.390;8.616;2023-04-25T09:04:08;12.70;24.10
37678;DHT22;23517;50.390;8.616;2023-04-25T09:06:35;12.40;24.60
37678;DHT22;23517;50.390;8.616;2023-04-25T09:09:06;12.40;23.80
37678;DHT22;23517;50.390;8.616;2023-04-25T09:11:35;12.20;25.00
37678;DHT22;23517;50.390;8.616;2023-04-25T09:19:30;11.80;26.20
37678;DHT22;23517;50.390;8.616;2023-04-25T09:22:03;11.60;27.00
37678;DHT22;23517;50.390;8.616;2023-04-25T09:27:21;10.90;29.00
37678;DHT22;23517;50.390;8.616;2023-04-25T09:29:57;10.60;31.60
37678;DHT22;23517;50.390;8.616;2023-04-25T09:32:26;10.50;32.80
37678;DHT22;23517;50.390;8.616;2023-04-25T09:34:55;10.40;34.30
37678;DHT22;23517;50.390;8.616;2023-04-25T09:37:24;10.30;35.10
37678;DHT22;23517;50.390;8.616;2023-04-25T09:39:57;10.40;35.00
37678;DHT22;23517;50.390;8.616;2023-04-25T09:42:31;10.60;33.50
37678;DHT22;23517;50.390;8.616;2023-04-25T09:44:59;10.70;33.00
37678;DHT22;23517;50.390;8.616;2023-04-25T09:47:28;10.90;32.90
37678;DHT22;23517;50.390;8.616;2023-04-25T09:49:55;11.20;31.50
37678;DHT22;23517;50.390;8.616;2023-04-25T09:52:24;11.20;31.60
37678;DHT22;23517;50.390;8.616;2023-04-25T09:54:52;11.20;28.80
37678;DHT22;23517;50.390;8.616;2023-04-25T09:57:23;11.30;28.90
37678;DHT22;23517;50.390;8.616;2023-04-25T09:59:55;11.80;27.50
37678;DHT22;23517;50.390;8.616;2023-04-25T10:02:24;12.10;25.80
37678;DHT22;23517;50.390;8.616;2023-04-25T10:04:54;12.10;25.50
37678;DHT22;23517;50.390;8.616;2023-04-25T10:07:26;11.90;24.30
37678;DHT22;23517;50.390;8.616;2023-04-25T10:10:04;11.60;24.40
37678;DHT22;23517;50.390;8.616;2023-04-25T10:12:32;11.10;25.40
37678;DHT22;23517;50.390;8.616;2023-04-25T10:15:02;11.40;25.20
37678;DHT22;23517;50.390;8.616;2023-04-25T10:17:30;11.50;25.40
37678;DHT22;23517;50.390;8.616;2023-04-25T10:19:57;11.60;24.90
37678;DHT22;23517;50.390;8.616;2023-04-25T10:22:35;11.80;24.40
37678;DHT22;23517;50.390;8.616;2023-04-25T10:25:09;12.40;23.20
37678;DHT22;23517;50.390;8.616;2023-04-25T10:27:38;12.90;21.50
37678;DHT22;23517;50.390;8.616;2023-04-25T10:30:15;13.20;19.50
37678;DHT22;23517;50.390;8.616;2023-04-25T10:32:44;13.00;19.60
37678;DHT22;23517;50.390;8.616;2023-04-25T10:35:16;12.90;19.40
37678;DHT22;23517;50.390;8.616;2023-04-25T10:40:36;12.20;20.50
37678;DHT22;23517;50.390;8.616;2023-04-25T10:46:00;12.30;21.50
37678;DHT22;23517;50.390;8.616;2023-04-25T10:48:28;12.10;20.70
37678;DHT22;23517;50.390;8.616;2023-04-25T10:51:12;11.90;22.90
37678;DHT22;23517;50.390;8.616;2023-04-25T10:53:48;12.10;22.10
37678;DHT22;23517;50.390;8.616;2023-04-25T10:56:26;12.30;22.40
37678;DHT22;23517;50.390;8.616;2023-04-25T10:59:06;12.50;21.60
37678;DHT22;23517;50.390;8.616;2023-04-25T11:01:45;12.80;20.90
37678;DHT22;23517;50.390;8.616;2023-04-25T11:04:22;12.60;20.20
37678;DHT22;23517;50.390;8.616;2023-04-25T11:09:34;12.40;21.30
37678;DHT22;23517;50.390;8.616;2023-04-25T11:12:01;12.70;21.20
37678;DHT22;23517;50.390;8.616;2023-04-25T11:14:28;12.90;21.50
37678;DHT22;23517;50.390;8.616;2023-04-25T11:16:56;12.80;19.40
37678;DHT22;23517;50.390;8.616;2023-04-25T11:19:26;12.60;20.00
37678;DHT22;23517;50.390;8.616;2023-04-25T11:21:57;12.50;21.60
37678;DHT22;23517;50.390;8.616;2023-04-25T11:24:29;12.60;20.80
37678;DHT22;23517;50.390;8.616;2023-04-25T11:27:00;12.40;20.20
37678;DHT22;23517;50.390;8.616;2023-04-25T11:29:33;11.80;20.60
37678;DHT22;23517;50.390;8.616;2023-04-25T11:32:00;11.50;21.20
37678;DHT22;23517;50.390;8.616;2023-04-25T11:34:29;11.30;22.20
37678;DHT22;23517;50.390;8.616;2023-04-25T11:36:58;11.20;22.80
37678;DHT22;23517;50.390;8.616;2023-04-25T11:39:26;11.30;23.10
37678;DHT22;23517;50.390;8.616;2023-04-25T11:41:54;11.30;23.20
37678;DHT22;23517;50.390;8.616;2023-04-25T11:44:21;11.30;23.40
37678;DHT22;23517;50.390;8.616;2023-04-25T11:46:48;11.40;23.20
37678;DHT22;23517;50.390;8.616;2023-04-25T11:49:15;11.40;22.90
37678;DHT22;23517;50.390;8.616;2023-04-25T11:51:43;11.40;23.20
37678;DHT22;23517;50.390;8.616;2023-04-25T11:54:11;11.60;23.20
37678;DHT22;23517;50.390;8.616;2023-04-25T11:56:42;11.60;23.00
37678;DHT22;23517;50.390;8.616;2023-04-25T11:59:09;11.50;22.00
37678;DHT22;23517;50.390;8.616;2023-04-25T12:01:39;11.50;22.00
37678;DHT22;23517;50.390;8.616;2023-04-25T12:04:21;11.60;22.60
37678;DHT22;23517;50.390;8.616;2023-04-25T12:06:52;11.60;21.40
37678;DHT22;23517;50.390;8.616;2023-04-25T12:09:30;11.60;20.80
37678;DHT22;23517;50.390;8.616;2023-04-25T12:11:59;11.60;21.20
37678;DHT22;23517;50.390;8.616;2023-04-25T12:14:32;11.50;22.10
37678;DHT22;23517;50.390;8.616;2023-04-25T12:17:02;11.50;23.40
37678;DHT22;23517;50.390;8.616;2023-04-25T12:19:35;11.80;22.50
37678;DHT22;23517;50.390;8.616;2023-04-25T12:22:03;11.90;22.10
37678;DHT22;23517;50.390;8.616;2023-04-25T12:24:45;12.00;22.30
37678;DHT22;23517;50.390;8.616;2023-04-25T12:27:14;12.20;20.10
37678;DHT22;23517;50.390;8.616;2023-04-25T12:29:54;12.40;20.40
37678;DHT22;23517;50.390;8.616;2023-04-25T12:32:22;12.80;20.00
37678;DHT22;23517;50.390;8.616;2023-04-25T12:34:49;12.90;19.70
37678;DHT22;23517;50.390;8.616;2023-04-25T12:37:15;13.10;19.00
37678;DHT22;23517;50.390;8.616;2023-04-25T12:39:42;13.10;19.00
37678;DHT22;23517;50.390;8.616;2023-04-25T12:42:09;12.90;19.80
37678;DHT22;23517;50.390;8.616;2023-04-25T12:44:38;13.00;19.60
37678;DHT22;23517;50.390;8.616;2023-04-25T12:47:05;12.70;19.70
37678;DHT22;23517;50.390;8.616;2023-04-25T12:49:32;12.30;20.10
37678;DHT22;23517;50.390;8.616;2023-04-25T12:51:59;12.30;20.80
37678;DHT22;23517;50.390;8.616;2023-04-25T12:54:26;12.50;20.80
37678;DHT22;23517;50.390;8.616;2023-04-25T12:56:53;12.80;21.20
37678;DHT22;23517;50.390;8.616;2023-04-25T12:59:20;12.90;19.20
37678;DHT22;23517;50.390;8.616;2023-04-25T13:01:47;12.90;18.70
37678;DHT22;23517;50.390;8.616;2023-04-25T13:04:14;12.50;19.10
37678;DHT22;23517;50.390;8.616;2023-04-25T13:06:42;12.20;19.60
37678;DHT22;23517;50.390;8.616;2023-04-25T13:09:09;12.20;20.20
37678;DHT22;23517;50.390;8.616;2023-04-25T13:11:36;12.40;19.00
37678;DHT22;23517;50.390;8.616;2023-04-25T13:14:04;12.70;18.80
37678;DHT22;23517;50.390;8.616;2023-04-25T13:16:31;13.10;18.60
37678;DHT22;23517;50.390;8.616;2023-04-25T13:19:08;13.30;18.30
37678;DHT22;23517;50.390;8.616;2023-04-25T13:21:37;13.40;18.00
37678;DHT22;23517;50.390;8.616;2023-04-25T13:24:04;13.40;17.40
37678;DHT22;23517;50.390;8.616;2023-04-25T13:26:30;13.40;17.50
37678;DHT22;23517;50.390;8.616;2023-04-25T13:28:57;13.10;17.40
37678;DHT22;23517;50.390;8.616;2023-04-25T13:31:24;13.10;17.30
37678;DHT22;23517;50.390;8.616;2023-04-25T13:33:51;12.90;17.10
37678;DHT22;23517;50.390;8.616;2023-04-25T13:36:18;12.60;17.60
37678;DHT22;23517;50.390;8.616;2023-04-25T13:38:44;12.70;17.90
37678;DHT22;23517;50.390;8.616;2023-04-25T13:41:14;12.60;17.10
37678;DHT22;23517;50.390;8.616;2023-04-25T13:43:46;12.80;17.30
37678;DHT22;23517;50.390;8.616;2023-04-25T13:46:15;13.00;16.50
37678;DHT22;23517;50.390;8.616;2023-04-25T13:49:02;13.00;16.40
37678;DHT22;23517;50.390;8.616;2023-04-25T13:51:39;12.80;16.80
37678;DHT22;23517;50.390;8.616;2023-04-25T13:54:06;12.50;17.80
37678;DHT22;23517;50.390;8.616;2023-04-25T13:56:32;12.10;17.80
37678;DHT22;23517;50.390;8.616;2023-04-25T13:58:59;11.90;18.80
37678;DHT22;23517;50.390;8.616;2023-04-25T14:01:26;11.90;19.20
37678;DHT22;23517;50.390;8.616;2023-04-25T14:03:54;11.90;19.70
37678;DHT22;23517;50.390;8.616;2023-04-25T14:06:21;12.00;19.40
37678;DHT22;23517;50.390;8.616;2023-04-25T14:08:50;11.90;18.80
37678;DHT22;23517;50.390;8.616;2023-04-25T14:11:17;11.90;19.30
37678;DHT22;23517;50.390;8.616;2023-04-25T14:13:45;11.90;19.30
37678;DHT22;23517;50.390;8.616;2023-04-25T14:16:12;12.00;19.30
37678;DHT22;23517;50.390;8.616;2023-04-25T14:18:39;11.80;19.10
37678;DHT22;23517;50.390;8.616;2023-04-25T14:21:06;11.60;20.10
37678;DHT22;23517;50.390;8.616;2023-04-25T14:23:32;11.70;20.50
37678;DHT22;23517;50.390;8.616;2023-04-25T14:25:59;11.60;20.00
37678;DHT22;23517;50.390;8.616;2023-04-25T14:28:25;11.60;20.40
37678;DHT22;23517;50.390;8.616;2023-04-25T14:30:52;11.80;20.70
37678;DHT22;23517;50.390;8.616;2023-04-25T14:33:19;11.90;20.40
37678;DHT22;23517;50.390;8.616;2023-04-25T14:35:46;11.90;20.00
37678;DHT22;23517;50.390;8.616;2023-04-25T14:38:12;11.70;20.40
37678;DHT22;23517;50.390;8.616;2023-04-25T14:40:39;11.80;20.40
37678;DHT22;23517;50.390;8.616;2023-04-25T14:43:06;11.90;19.80
37678;DHT22;23517;50.390;8.616;2023-04-25T14:45:33;12.00;19.20
37678;DHT22;23517;50.390;8.616;2023-04-25T14:48:00;12.10;18.70
37678;DHT22;23517;50.390;8.616;2023-04-25T14:50:27;12.10;19.80
37678;DHT22;23517;50.390;8.616;2023-04-25T14:52:54;12.20;19.60
37678;DHT22;23517;50.390;8.616;2023-04-25T14:55:25;12.40;18.70
37678;DHT22;23517;50.390;8.616;2023-04-25T14:57:53;12.40;18.40
37678;DHT22;23517;50.390;8.616;2023-04-25T15:00:23;12.50;18.80
37678;DHT22;23517;50.390;8.616;2023-04-25T15:02:49;12.10;18.50
37678;DHT22;23517;50.390;8.616;2023-04-25T15:05:16;12.00;19.60
37678;DHT22;23517;50.390;8.616;2023-04-25T15:07:44;12.20;19.00
37678;DHT22;23517;50.390;8.616;2023-04-25T15:10:10;12.30;19.30
37678;DHT22;23517;50.390;8.616;2023-04-25T15:12:40;12.40;19.00
37678;DHT22;23517;50.390;8.616;2023-04-25T15:15:07;12.50;18.80
37678;DHT22;23517;50.390;8.616;2023-04-25T15:17:43;12.70;17.80
37678;DHT22;23517;50.390;8.616;2023-04-25T15:20:12;13.00;17.10
37678;DHT22;23517;50.390;8.616;2023-04-25T15:22:40;13.20;17.10
37678;DHT22;23517;50.390;8.616;2023-04-25T15:25:09;13.20;16.40
37678;DHT22;23517;50.390;8.616;2023-04-25T15:27:37;13.10;16.10
37678;DHT22;23517;50.390;8.616;2023-04-25T15:30:08;12.70;16.60
37678;DHT22;23517;50.390;8.616;2023-04-25T15:32:40;12.50;17.40
37678;DHT22;23517;50.390;8.616;2023-04-25T15:35:07;12.30;17.30
37678;DHT22;23517;50.390;8.616;2023-04-25T15:37:35;12.20;17.40
37678;DHT22;23517;50.390;8.616;2023-04-25T15:40:09;12.00;17.20
37678;DHT22;23517;50.390;8.616;2023-04-25T15:42:47;11.90;17.90
37678;DHT22;23517;50.390;8.616;2023-04-25T15:45:18;11.80;19.10
37678;DHT22;23517;50.390;8.616;2023-04-25T15:47:45;11.70;19.10
37678;DHT22;23517;50.390;8.616;2023-04-25T15:50:13;11.60;18.90
37678;DHT22;23517;50.390;8.616;2023-04-25T15:52:42;11.50;18.00
37678;DHT22;23517;50.390;8.616;2023-04-25T15:55:10;11.40;19.90
37678;DHT22;23517;50.390;8.616;2023-04-25T15:57:40;11.30;20.90
37678;DHT22;23517;50.390;8.616;2023-04-25T16:00:08;11.30;20.30